createdAt,value
2024-01-06T18:01:36.757Z,55.00
2024-01-06T18:02:10.869Z,54.67
2024-01-06T18:02:48.326Z,53.67
2024-01-06T18:03:22.356Z,51.33
2024-01-06T18:03:58.819Z,50.67
2024-01-06T18:04:32.554Z,51.00
2024-01-06T18:05:09.721Z,50.00
2024-01-06T18:05:43.370Z,50.00
2024-01-06T18:06:16.814Z,50.00
2024-01-06T18:06:55.993Z,48.67
2024-01-06T18:07:31.638Z,49.00
2024-01-06T18:08:05.884Z,48.00
2024-01-06T18:08:39.171Z,47.00
2024-01-06T18:09:15.512Z,47.67
2024-01-06T18:09:49.285Z,48.00
2024-01-06T18:10:24.364Z,48.00
2024-01-06T18:10:57.755Z,49.00
2024-01-06T18:11:31.104Z,49.00
2024-01-06T18:12:05.551Z,49.00
2024-01-06T18:12:40.252Z,49.00
2024-01-06T18:13:13.685Z,49.00
2024-01-06T18:13:47.026Z,49.33
2024-01-06T18:14:23.368Z,49.67
2024-01-06T18:14:56.692Z,50.67
2024-01-06T18:15:33.793Z,51.33
2024-01-06T18:16:08.083Z,53.00
2024-01-06T18:16:41.837Z,56.67
2024-01-06T18:17:15.266Z,61.33
2024-01-06T18:17:48.731Z,66.67
2024-01-06T18:18:23.950Z,68.67
2024-01-06T18:18:57.864Z,71.00
2024-01-06T18:19:31.767Z,71.67
2024-01-06T18:20:07.681Z,75.33
2024-01-06T18:20:47.974Z,74.33
2024-01-06T18:21:23.459Z,74.67
2024-01-06T18:21:57.261Z,78.33
2024-01-06T18:22:31.316Z,78.00
2024-01-06T18:23:04.949Z,80.67
2024-01-06T18:23:39.462Z,83.33
2024-01-06T18:24:13.346Z,85.67
2024-01-06T18:24:47.358Z,86.00
2024-01-06T18:25:20.944Z,89.33
2024-01-06T18:25:55.624Z,95.00
2024-01-06T18:26:29.194Z,91.67
2024-01-06T18:27:02.536Z,90.00
2024-01-06T18:27:36.069Z,90.67
2024-01-06T18:28:09.595Z,94.67
2024-01-06T18:28:43.606Z,98.33
2024-01-06T18:29:19.325Z,120.33
2024-01-06T18:29:53.123Z,126.00
2024-01-06T18:30:27.829Z,130.33
2024-01-06T18:31:01.738Z,120.33
2024-01-06T18:31:35.219Z,111.33
2024-01-06T18:32:14.147Z,110.33
2024-01-06T18:32:50.188Z,110.00
2024-01-06T18:33:25.182Z,107.67
2024-01-06T18:33:59.141Z,106.00
2024-01-06T18:34:35.487Z,109.00
2024-01-06T18:35:09.679Z,109.67
2024-01-06T18:35:43.157Z,111.67
2024-01-06T18:36:17.330Z,110.33
2024-01-06T18:36:50.629Z,109.33
2024-01-06T18:37:24.178Z,108.00
2024-01-06T18:37:57.601Z,107.67
2024-01-06T18:38:31.081Z,108.67
2024-01-06T18:39:04.477Z,107.33
2024-01-06T18:39:37.940Z,108.33
2024-01-06T18:40:12.940Z,110.33
2024-01-06T18:40:46.618Z,110.00
2024-01-06T18:41:20.501Z,109.67
2024-01-06T18:41:56.178Z,110.00
2024-01-06T18:42:29.874Z,110.00
2024-01-06T18:43:03.599Z,111.33
2024-01-06T18:43:37.171Z,115.67
2024-01-06T18:44:11.579Z,119.00
2024-01-06T18:44:45.056Z,117.33
2024-01-06T18:45:18.810Z,116.00
2024-01-06T18:45:52.455Z,125.33
2024-01-06T18:46:26.403Z,124.00
2024-01-06T18:47:00.082Z,122.00
2024-01-06T18:47:33.588Z,124.00
2024-01-06T18:48:08.045Z,121.67
2024-01-06T18:48:41.751Z,120.67
2024-01-06T18:49:15.807Z,119.67
2024-01-06T18:49:49.480Z,119.00
2024-01-06T18:50:24.146Z,118.33
2024-01-06T18:50:57.572Z,118.33
2024-01-06T18:51:34.469Z,118.67
2024-01-06T18:52:08.288Z,119.00
2024-01-06T18:52:43.929Z,118.67
2024-01-06T18:53:18.001Z,117.00
2024-01-06T18:53:51.371Z,119.33
2024-01-06T18:54:31.338Z,119.00
2024-01-06T18:55:09.433Z,124.67
2024-01-06T18:55:43.197Z,123.00
2024-01-06T18:56:16.626Z,123.33
2024-01-06T18:56:50.121Z,127.00
2024-01-06T18:57:25.156Z,140.33
2024-01-06T18:57:58.563Z,151.33
2024-01-06T18:58:32.294Z,157.33
2024-01-06T18:59:05.569Z,151.33
2024-01-06T18:59:39.225Z,147.67
2024-01-06T19:00:14.198Z,146.00
2024-01-06T19:00:47.950Z,155.33
2024-01-06T19:01:24.282Z,153.67
2024-01-06T19:02:00.858Z,159.33
2024-01-06T19:02:38.635Z,158.67
2024-01-06T19:03:12.256Z,156.00
2024-01-06T19:03:46.488Z,150.67
2024-01-06T19:04:20.428Z,149.33
2024-01-06T19:04:54.575Z,147.67
2024-01-06T19:05:32.759Z,144.33
2024-01-06T19:06:07.869Z,142.00
2024-01-06T19:06:41.458Z,130.00
2024-01-06T19:07:17.359Z,125.67
2024-01-06T19:07:50.805Z,132.33
2024-01-06T19:08:24.939Z,129.67
2024-01-06T19:08:58.700Z,127.67
2024-01-06T19:09:32.411Z,127.00
2024-01-06T19:10:07.557Z,124.00
2024-01-06T19:10:41.894Z,123.33
2024-01-06T19:11:15.303Z,123.33
2024-01-06T19:11:49.134Z,122.67
2024-01-06T19:12:22.588Z,122.67
2024-01-06T19:12:56.543Z,122.33
2024-01-06T19:13:30.257Z,123.00
2024-01-06T19:14:04.040Z,124.00
2024-01-06T19:14:40.046Z,124.00
2024-01-06T19:15:13.993Z,124.33
2024-01-06T19:15:48.340Z,122.67
2024-01-06T19:16:21.736Z,119.67
2024-01-06T19:16:56.344Z,120.67
2024-01-06T19:17:31.376Z,121.67
2024-01-06T19:18:05.223Z,121.33
2024-01-06T19:18:38.888Z,120.67
2024-01-06T19:19:12.874Z,120.67
2024-01-06T19:19:47.255Z,114.67
2024-01-06T19:20:20.773Z,112.00
2024-01-06T19:20:55.597Z,112.33
2024-01-06T19:21:29.072Z,113.33
2024-01-06T19:22:02.827Z,113.67
2024-01-06T19:22:36.182Z,114.33
2024-01-06T19:23:10.416Z,115.00
2024-01-06T19:23:44.153Z,115.33
2024-01-06T19:24:27.588Z,116.00
2024-01-06T19:25:08.972Z,117.00
2024-01-06T19:25:42.885Z,117.00
2024-01-06T19:26:16.199Z,115.00
2024-01-06T19:26:49.506Z,115.67
2024-01-06T19:27:23.336Z,116.00
2024-01-06T19:27:56.921Z,115.67
2024-01-06T19:28:30.627Z,116.33
2024-01-06T19:29:03.913Z,122.33
2024-01-06T19:29:43.800Z,134.33
2024-01-06T19:30:18.060Z,141.00
2024-01-06T19:30:51.826Z,136.67
2024-01-06T19:31:27.207Z,133.33
2024-01-06T19:32:00.614Z,132.33
2024-01-06T19:32:34.052Z,132.00
2024-01-06T19:33:09.862Z,129.67
2024-01-06T19:33:43.680Z,124.67
2024-01-06T19:34:17.896Z,120.00
2024-01-06T19:34:55.919Z,120.67
2024-01-06T19:35:29.649Z,122.33
2024-01-06T19:36:03.313Z,122.33
2024-01-06T19:36:36.775Z,121.67
2024-01-06T19:37:10.345Z,120.00
2024-01-06T19:37:43.772Z,117.00
2024-01-06T19:38:20.301Z,110.33
2024-01-06T19:38:54.665Z,105.00
2024-01-06T19:39:29.831Z,103.67
2024-01-06T19:40:03.619Z,97.33
2024-01-06T19:40:37.403Z,83.67
2024-01-06T19:41:11.378Z,85.00
2024-01-06T19:41:45.267Z,90.00
2024-01-06T19:42:18.856Z,88.00
2024-01-06T19:43:00.853Z,86.67
2024-01-06T19:43:34.586Z,89.33
2024-01-06T19:44:09.264Z,90.67
2024-01-06T19:44:43.331Z,89.33
2024-01-06T19:45:18.116Z,85.00
2024-01-06T19:45:55.648Z,80.67
2024-01-06T19:46:30.315Z,81.00
2024-01-06T19:47:04.262Z,80.67
2024-01-06T19:47:38.130Z,78.67
2024-01-06T19:48:11.595Z,81.67
2024-01-06T19:48:45.245Z,84.67
2024-01-06T19:49:19.178Z,85.33
2024-01-06T19:49:53.309Z,85.67
2024-01-06T19:50:28.953Z,87.67
2024-01-06T19:51:03.574Z,88.67
2024-01-06T19:51:37.369Z,88.67
2024-01-06T19:52:11.204Z,88.00
2024-01-06T19:52:44.789Z,88.00
2024-01-06T19:53:18.928Z,87.33
2024-01-06T19:53:52.459Z,86.67
2024-01-06T19:54:26.175Z,86.33
2024-01-06T19:55:01.878Z,81.33
2024-01-06T19:55:36.159Z,80.33
2024-01-06T19:56:17.617Z,79.67
2024-01-06T19:56:51.254Z,78.67
2024-01-06T19:57:25.122Z,75.67
2024-01-06T19:58:03.408Z,76.00
2024-01-06T19:58:37.059Z,74.67
2024-01-06T19:59:12.203Z,69.00
2024-01-06T19:59:48.642Z,69.33
2024-01-06T20:00:31.794Z,71.33
2024-01-06T20:01:09.689Z,68.67
2024-01-06T20:01:43.330Z,70.00
2024-01-06T20:02:17.264Z,71.00
2024-01-06T20:02:51.492Z,71.33
2024-01-06T20:03:25.178Z,72.00
2024-01-06T20:03:58.679Z,73.00
2024-01-06T20:04:32.211Z,73.00
2024-01-06T20:05:08.065Z,73.33
2024-01-06T20:05:41.498Z,76.00
2024-01-06T20:06:15.481Z,77.00
2024-01-06T20:06:49.049Z,77.33
2024-01-06T20:07:27.726Z,78.33
2024-01-06T20:08:01.390Z,81.33
2024-01-06T20:08:35.026Z,84.33
2024-01-06T20:09:09.116Z,88.00
2024-01-06T20:09:48.458Z,88.33
2024-01-06T20:10:22.081Z,91.00
2024-01-06T20:11:01.363Z,93.00
2024-01-06T20:11:34.857Z,92.67
2024-01-06T20:12:09.097Z,92.67
2024-01-06T20:12:44.036Z,92.00
2024-01-06T20:13:17.516Z,92.00
2024-01-06T20:13:54.780Z,93.33
2024-01-06T20:14:28.564Z,95.67
2024-01-06T20:15:01.931Z,97.00
2024-01-06T20:15:35.396Z,97.67
2024-01-06T20:16:09.113Z,98.33
2024-01-06T20:16:42.616Z,102.00
2024-01-06T20:17:16.587Z,104.33
2024-01-06T20:17:50.077Z,102.67
2024-01-06T20:18:27.349Z,105.67
2024-01-06T20:19:08.002Z,109.67
2024-01-06T20:19:41.570Z,107.67
2024-01-06T20:20:15.173Z,112.00
2024-01-06T20:20:49.150Z,110.33
2024-01-06T20:21:22.601Z,110.00
2024-01-06T20:21:56.681Z,110.00
2024-01-06T20:22:30.278Z,109.67
2024-01-06T20:23:03.865Z,110.33
2024-01-06T20:23:37.287Z,111.67
2024-01-06T20:24:10.599Z,111.67
2024-01-06T20:24:44.441Z,111.00
2024-01-06T20:25:18.251Z,112.00
2024-01-06T20:25:51.898Z,115.67
2024-01-06T20:26:27.202Z,119.00
2024-01-06T20:27:00.792Z,120.33
2024-01-06T20:27:35.896Z,117.33
2024-01-06T20:28:09.978Z,117.33
2024-01-06T20:28:45.988Z,117.67
2024-01-06T20:29:19.937Z,117.67
2024-01-06T20:29:54.566Z,117.33
2024-01-06T20:30:28.358Z,117.67
2024-01-06T20:31:07.653Z,117.33
2024-01-06T20:31:41.520Z,119.00
2024-01-06T20:32:15.576Z,118.33
2024-01-06T20:32:49.232Z,126.67
2024-01-06T20:33:22.763Z,125.33
2024-01-06T20:33:57.003Z,123.33
2024-01-06T20:34:31.147Z,123.67
2024-01-06T20:35:05.299Z,128.33
2024-01-06T20:35:38.775Z,134.33
2024-01-06T20:36:13.947Z,130.33
2024-01-06T20:36:47.668Z,129.67
2024-01-06T20:37:22.331Z,128.33
2024-01-06T20:37:56.578Z,129.00
2024-01-06T20:38:30.257Z,128.33
2024-01-06T20:39:04.048Z,127.33
2024-01-06T20:39:37.653Z,127.33
2024-01-06T20:40:11.954Z,125.67
2024-01-06T20:40:45.428Z,121.67
2024-01-06T20:41:18.893Z,118.33
2024-01-06T20:41:52.844Z,113.33
2024-01-06T20:42:26.610Z,107.67
2024-01-06T20:43:00.168Z,102.00
2024-01-06T20:43:33.829Z,102.33
2024-01-06T20:44:09.538Z,103.33
2024-01-06T20:44:44.051Z,104.00
2024-01-06T20:45:19.372Z,103.33
2024-01-06T20:45:55.493Z,101.67
2024-01-06T20:46:30.220Z,101.67
2024-01-06T20:47:03.695Z,97.33
2024-01-06T20:47:37.643Z,90.67
2024-01-06T20:48:11.441Z,86.67
2024-01-06T20:48:47.129Z,90.00
2024-01-06T20:49:21.336Z,89.00
2024-01-06T20:49:56.084Z,87.00
2024-01-06T20:50:29.418Z,86.67
2024-01-06T20:51:03.664Z,88.33
2024-01-06T20:51:37.476Z,85.67
2024-01-06T20:52:11.561Z,87.33
2024-01-06T20:52:45.020Z,82.33
2024-01-06T20:53:18.294Z,82.00
2024-01-06T20:53:52.150Z,78.00
2024-01-06T20:54:25.917Z,74.00
2024-01-06T20:54:59.410Z,73.67
2024-01-06T20:55:33.110Z,76.33
2024-01-06T20:56:07.790Z,77.00
2024-01-06T20:56:41.334Z,79.00
2024-01-06T20:57:14.945Z,80.33
2024-01-06T20:57:49.624Z,81.00
2024-01-06T20:58:23.343Z,80.33
2024-01-06T20:58:57.382Z,79.67
2024-01-06T20:59:31.754Z,79.00
2024-01-06T21:00:06.198Z,76.67
2024-01-06T21:00:40.288Z,78.00
2024-01-06T21:01:14.088Z,78.33
2024-01-06T21:01:47.841Z,79.00
2024-01-06T21:02:22.218Z,79.67
2024-01-06T21:02:56.757Z,79.67
2024-01-06T21:03:30.688Z,79.67
2024-01-06T21:04:04.559Z,78.33
2024-01-06T21:04:38.137Z,77.67
2024-01-06T21:05:11.723Z,76.33
2024-01-06T21:05:45.686Z,76.67
2024-01-06T21:06:20.177Z,76.00
2024-01-06T21:06:54.378Z,76.00
2024-01-06T21:07:28.135Z,76.33
2024-01-06T21:08:02.199Z,76.33
2024-01-06T21:08:37.842Z,75.33
2024-01-06T21:09:11.577Z,75.67
2024-01-06T21:09:45.050Z,75.33
2024-01-06T21:10:18.797Z,74.33
2024-01-06T21:10:52.984Z,74.67
2024-01-06T21:11:27.716Z,74.00
2024-01-06T21:12:01.059Z,74.33
2024-01-06T21:12:34.801Z,74.00
2024-01-06T21:13:08.658Z,73.67
2024-01-06T21:13:42.064Z,72.00
2024-01-06T21:14:15.431Z,72.00
2024-01-06T21:14:49.140Z,73.00
2024-01-06T21:15:23.761Z,73.00
2024-01-06T21:15:57.241Z,72.33
2024-01-06T21:16:30.622Z,72.67
2024-01-06T21:17:04.043Z,73.00
2024-01-06T21:17:37.430Z,73.00
2024-01-06T21:18:12.031Z,73.00
2024-01-06T21:18:47.317Z,74.00
2024-01-06T21:19:22.011Z,75.33
2024-01-06T21:19:56.581Z,75.00
2024-01-06T21:20:29.945Z,75.00
2024-01-06T21:21:04.710Z,75.00
2024-01-06T21:21:38.785Z,75.00
2024-01-06T21:22:12.491Z,75.00
2024-01-06T21:22:45.828Z,76.00
2024-01-06T21:23:31.622Z,75.00
2024-01-06T21:24:13.628Z,75.00
2024-01-06T21:24:51.428Z,75.33
2024-01-06T21:25:24.975Z,76.00
2024-01-06T21:26:03.987Z,76.00
2024-01-06T21:26:37.933Z,77.33
2024-01-06T21:27:11.620Z,78.00
2024-01-06T21:27:45.415Z,78.00
2024-01-06T21:28:19.058Z,79.00
2024-01-06T21:28:56.375Z,79.00
2024-01-06T21:29:30.909Z,80.00
2024-01-06T21:30:06.754Z,80.00
2024-01-06T21:30:43.673Z,79.33
2024-01-06T21:31:17.618Z,79.33
2024-01-06T21:31:51.325Z,78.00
2024-01-06T21:32:25.090Z,78.00
2024-01-06T21:33:02.154Z,78.00
2024-01-06T21:33:36.533Z,78.00
2024-01-06T21:34:10.684Z,79.33
2024-01-06T21:34:44.179Z,80.00
2024-01-06T21:35:17.580Z,83.67
2024-01-06T21:35:51.609Z,89.33
2024-01-06T21:36:25.495Z,92.00
2024-01-06T21:36:59.812Z,94.33
2024-01-06T21:37:36.134Z,91.67
2024-01-06T21:38:13.630Z,90.33
2024-01-06T21:38:46.920Z,89.67
2024-01-06T21:39:20.662Z,89.00
2024-01-06T21:39:56.533Z,86.67
2024-01-06T21:40:30.784Z,82.00
2024-01-06T21:41:05.585Z,82.00
2024-01-06T21:41:42.064Z,81.67
2024-01-06T21:42:15.743Z,81.33
2024-01-06T21:42:49.361Z,81.67
2024-01-06T21:43:22.922Z,81.33
2024-01-06T21:43:56.939Z,81.33
2024-01-06T21:44:30.645Z,81.00
2024-01-06T21:45:05.164Z,81.00
2024-01-06T21:45:39.212Z,81.00
2024-01-06T21:46:13.218Z,80.33
2024-01-06T21:46:46.936Z,80.00
2024-01-06T21:47:20.612Z,80.67
2024-01-06T21:47:56.923Z,81.00
2024-01-06T21:48:31.078Z,81.00
2024-01-06T21:49:05.038Z,81.00
2024-01-06T21:49:40.063Z,80.33
2024-01-06T21:50:16.898Z,79.33
2024-01-06T21:50:50.314Z,80.00
2024-01-06T21:51:23.769Z,79.33
2024-01-06T21:51:57.310Z,78.33
2024-01-06T21:52:30.727Z,78.33
2024-01-06T21:53:04.236Z,79.00
2024-01-06T21:53:37.568Z,79.67
2024-01-06T21:54:13.559Z,82.67
2024-01-06T21:54:47.147Z,83.00
2024-01-06T21:55:20.661Z,83.67
2024-01-06T21:55:54.832Z,83.00
2024-01-06T21:56:28.637Z,80.67
2024-01-06T21:57:01.950Z,82.00
2024-01-06T21:57:35.337Z,82.67
2024-01-06T21:58:09.977Z,82.00
2024-01-06T21:58:43.612Z,82.00
2024-01-06T21:59:17.165Z,82.00
2024-01-06T21:59:50.585Z,82.67
2024-01-06T22:00:24.501Z,84.33
2024-01-06T22:00:59.224Z,85.67
2024-01-06T22:01:32.994Z,87.00
2024-01-06T22:02:06.783Z,89.00
2024-01-06T22:02:40.043Z,88.33
2024-01-06T22:03:13.623Z,86.33
2024-01-06T22:03:47.436Z,85.33
2024-01-06T22:04:21.367Z,85.67
2024-01-06T22:04:56.052Z,84.67
2024-01-06T22:05:29.412Z,79.33
2024-01-06T22:06:03.241Z,76.33
2024-01-06T22:06:41.299Z,76.33
2024-01-06T22:07:16.435Z,74.00
2024-01-06T22:07:49.753Z,70.00
2024-01-06T22:08:23.505Z,70.33
2024-01-06T22:08:56.827Z,71.00
2024-01-06T22:09:45.009Z,71.33
2024-01-06T22:10:19.722Z,71.00
2024-01-06T22:10:53.131Z,71.00
2024-01-06T22:11:28.063Z,73.00
2024-01-06T22:12:01.936Z,74.33
2024-01-06T22:12:35.757Z,75.00
2024-01-06T22:13:09.282Z,76.00
2024-01-06T22:13:42.624Z,76.33
2024-01-06T22:14:16.334Z,83.00
2024-01-06T22:14:50.060Z,92.67
2024-01-06T22:15:23.793Z,104.00
2024-01-06T22:16:00.017Z,117.00
2024-01-06T22:16:33.377Z,116.33
2024-01-06T22:17:07.357Z,120.67
2024-01-06T22:17:40.967Z,127.00
2024-01-06T22:18:14.758Z,119.33
2024-01-06T22:18:48.714Z,113.00
2024-01-06T22:19:22.486Z,111.67
2024-01-06T22:19:56.637Z,124.00
2024-01-06T22:20:30.223Z,116.67
2024-01-06T22:21:04.861Z,112.33
2024-01-06T22:21:44.102Z,110.67
2024-01-06T22:22:18.908Z,110.00
2024-01-06T22:22:52.363Z,110.00
2024-01-06T22:23:26.159Z,109.00
2024-01-06T22:24:00.596Z,108.00
2024-01-06T22:24:34.712Z,107.67
2024-01-06T22:25:08.865Z,105.67
2024-01-06T22:25:42.437Z,104.00
2024-01-06T22:26:15.700Z,103.67
2024-01-06T22:26:49.041Z,103.00
2024-01-06T22:27:22.835Z,102.33
2024-01-06T22:27:56.661Z,101.00
2024-01-06T22:28:30.233Z,101.00
2024-01-06T22:29:07.779Z,100.33
2024-01-06T22:29:44.268Z,100.00
2024-01-06T22:30:18.279Z,98.33
2024-01-06T22:30:52.388Z,94.00
2024-01-06T22:31:27.163Z,89.33
2024-01-06T22:32:00.724Z,85.00
2024-01-06T22:32:34.254Z,84.67
2024-01-06T22:33:07.974Z,79.33
2024-01-06T22:33:41.735Z,73.00
2024-01-06T22:34:15.552Z,70.67
2024-01-06T22:34:49.076Z,73.00
2024-01-06T22:35:22.641Z,70.00
2024-01-06T22:35:56.840Z,65.67
2024-01-06T22:36:30.215Z,67.00
2024-01-06T22:37:03.852Z,71.67
2024-01-06T22:37:40.487Z,71.67
2024-01-06T22:38:17.103Z,71.00
2024-01-06T22:38:55.505Z,71.67
2024-01-06T22:39:34.510Z,71.67
2024-01-06T22:40:09.134Z,72.33
2024-01-06T22:40:43.021Z,73.00
2024-01-06T22:41:17.010Z,73.67
2024-01-06T22:41:50.636Z,74.00
2024-01-06T22:42:24.302Z,74.33
2024-01-06T22:42:57.654Z,75.67
2024-01-06T22:43:33.811Z,75.67
2024-01-06T22:44:07.924Z,76.33
2024-01-06T22:44:42.447Z,77.67
2024-01-06T22:45:15.926Z,78.00
2024-01-06T22:45:49.575Z,78.00
2024-01-06T22:46:25.646Z,76.00
2024-01-06T22:47:01.154Z,75.00
2024-01-06T22:47:34.577Z,74.67
2024-01-06T22:48:08.991Z,72.00
2024-01-06T22:48:42.880Z,66.33
2024-01-06T22:49:16.641Z,62.67
2024-01-06T22:49:50.029Z,64.67
2024-01-06T22:50:23.754Z,68.00
2024-01-06T22:50:57.401Z,71.67
2024-01-06T22:51:30.899Z,146.33
2024-01-06T22:52:04.933Z,283.67
2024-01-06T22:52:38.582Z,300.33
2024-01-06T22:53:12.121Z,230.00
2024-01-06T22:53:45.529Z,178.33
2024-01-06T22:54:19.127Z,133.00
2024-01-06T22:54:52.427Z,86.00
2024-01-06T22:55:26.106Z,69.00
2024-01-06T22:56:00.061Z,56.67
2024-01-06T22:56:33.779Z,52.33
2024-01-06T22:57:07.096Z,60.00
2024-01-06T22:57:40.860Z,59.33
2024-01-06T22:58:14.292Z,67.33
2024-01-06T22:58:47.894Z,70.00
2024-01-06T22:59:21.497Z,70.67
2024-01-06T22:59:59.284Z,63.67
2024-01-06T23:00:37.621Z,55.67
2024-01-06T23:01:11.693Z,54.33
2024-01-06T23:01:46.705Z,54.67
2024-01-06T23:02:20.284Z,49.67
2024-01-06T23:02:54.552Z,50.67
2024-01-06T23:03:28.399Z,53.33
2024-01-06T23:04:02.251Z,56.33
2024-01-06T23:04:35.755Z,52.33
2024-01-06T23:05:17.716Z,49.67
2024-01-06T23:05:53.028Z,46.33
2024-01-06T23:06:29.704Z,46.33
2024-01-06T23:07:04.952Z,48.00
2024-01-06T23:07:38.564Z,44.00
